sensor_id;sensor_type;location;lat;lon;timestamp;P1;durP1;ratioP1;P2;durP2;ratioP2
71366;SDS011;60030;52.274;8.040;2022-09-16T00:00:45;1.70;;;0.77;;
71366;SDS011;60030;52.274;8.040;2022-09-16T00:03:12;4.33;;;1.20;;
71366;SDS011;60030;52.274;8.040;2022-09-16T00:05:41;1.93;;;0.60;;
71366;SDS011;60030;52.274;8.040;2022-09-16T00:08:09;2.00;;;0.50;;
71366;SDS011;60030;52.274;8.040;2022-09-16T00:10:38;3.90;;;0.70;;
71366;SDS011;60030;52.274;8.040;2022-09-16T00:13:07;4.60;;;0.87;;
71366;SDS011;60030;52.274;8.040;2022-09-16T00:15:35;1.97;;;0.90;;
71366;SDS011;60030;52.274;8.040;2022-09-16T00:18:02;2.60;;;0.70;;
71366;SDS011;60030;52.274;8.040;2022-09-16T00:20:29;4.23;;;0.77;;
71366;SDS011;60030;52.274;8.040;2022-09-16T00:22:56;2.83;;;0.80;;
71366;SDS011;60030;52.274;8.040;2022-09-16T00:25:23;5.43;;;0.80;;
71366;SDS011;60030;52.274;8.040;2022-09-16T00:27:51;1.20;;;0.60;;
71366;SDS011;60030;52.274;8.040;2022-09-16T00:30:18;7.97;;;1.00;;
71366;SDS011;60030;52.274;8.040;2022-09-16T00:32:46;2.70;;;0.70;;
71366;SDS011;60030;52.274;8.040;2022-09-16T00:35:13;3.17;;;0.80;;
71366;SDS011;60030;52.274;8.040;2022-09-16T00:37:40;1.47;;;0.63;;
71366;SDS011;60030;52.274;8.040;2022-09-16T00:40:07;4.53;;;0.90;;
71366;SDS011;60030;52.274;8.040;2022-09-16T00:42:36;3.97;;;0.80;;
71366;SDS011;60030;52.274;8.040;2022-09-16T00:45:12;4.50;;;0.90;;
71366;SDS011;60030;52.274;8.040;2022-09-16T00:47:41;2.30;;;0.83;;
71366;SDS011;60030;52.274;8.040;2022-09-16T00:50:13;3.43;;;0.67;;
71366;SDS011;60030;52.274;8.040;2022-09-16T00:52:44;1.47;;;0.70;;
71366;SDS011;60030;52.274;8.040;2022-09-16T00:55:14;4.23;;;0.90;;
71366;SDS011;60030;52.274;8.040;2022-09-16T00:57:45;3.03;;;0.70;;
71366;SDS011;60030;52.274;8.040;2022-09-16T01:00:14;2.47;;;0.77;;
71366;SDS011;60030;52.274;8.040;2022-09-16T01:02:42;1.00;;;0.57;;
71366;SDS011;60030;52.274;8.040;2022-09-16T01:05:11;5.93;;;0.90;;
71366;SDS011;60030;52.274;8.040;2022-09-16T01:07:42;1.53;;;0.63;;
71366;SDS011;60030;52.274;8.040;2022-09-16T01:10:11;2.83;;;0.73;;
71366;SDS011;60030;52.274;8.040;2022-09-16T01:12:40;5.37;;;0.60;;
71366;SDS011;60030;52.274;8.040;2022-09-16T01:15:10;3.40;;;0.80;;
71366;SDS011;60030;52.274;8.040;2022-09-16T01:17:43;2.20;;;0.80;;
71366;SDS011;60030;52.274;8.040;2022-09-16T01:20:35;4.07;;;1.20;;
71366;SDS011;60030;52.274;8.040;2022-09-16T01:23:40;1.43;;;0.73;;
71366;SDS011;60030;52.274;8.040;2022-09-16T01:26:35;4.87;;;0.80;;
71366;SDS011;60030;52.274;8.040;2022-09-16T01:29:22;3.80;;;1.17;;
71366;SDS011;60030;52.274;8.040;2022-09-16T01:32:03;2.83;;;0.80;;
71366;SDS011;60030;52.274;8.040;2022-09-16T01:34:35;1.97;;;0.60;;
71366;SDS011;60030;52.274;8.040;2022-09-16T01:37:11;2.43;;;0.77;;
71366;SDS011;60030;52.274;8.040;2022-09-16T01:39:44;3.60;;;0.70;;
71366;SDS011;60030;52.274;8.040;2022-09-16T01:42:17;5.43;;;0.80;;
71366;SDS011;60030;52.274;8.040;2022-09-16T01:44:57;2.90;;;0.70;;
71366;SDS011;60030;52.274;8.040;2022-09-16T01:47:32;2.33;;;0.80;;
71366;SDS011;60030;52.274;8.040;2022-09-16T01:50:05;3.27;;;0.80;;
71366;SDS011;60030;52.274;8.040;2022-09-16T01:52:40;2.07;;;0.60;;
71366;SDS011;60030;52.274;8.040;2022-09-16T01:55:13;1.60;;;0.80;;
71366;SDS011;60030;52.274;8.040;2022-09-16T01:57:47;1.20;;;0.80;;
71366;SDS011;60030;52.274;8.040;2022-09-16T02:00:20;2.03;;;0.80;;
71366;SDS011;60030;52.274;8.040;2022-09-16T02:02:50;1.77;;;0.60;;
71366;SDS011;60030;52.274;8.040;2022-09-16T02:05:22;2.30;;;0.80;;
71366;SDS011;60030;52.274;8.040;2022-09-16T02:07:54;2.80;;;0.80;;
71366;SDS011;60030;52.274;8.040;2022-09-16T02:10:25;4.23;;;0.77;;
71366;SDS011;60030;52.274;8.040;2022-09-16T02:12:56;4.17;;;0.80;;
71366;SDS011;60030;52.274;8.040;2022-09-16T02:15:27;3.53;;;0.73;;
71366;SDS011;60030;52.274;8.040;2022-09-16T02:18:00;2.27;;;0.80;;
71366;SDS011;60030;52.274;8.040;2022-09-16T02:20:32;2.60;;;0.80;;
71366;SDS011;60030;52.274;8.040;2022-09-16T02:23:04;6.60;;;1.07;;
71366;SDS011;60030;52.274;8.040;2022-09-16T02:25:36;1.10;;;0.60;;
71366;SDS011;60030;52.274;8.040;2022-09-16T02:28:05;1.20;;;0.50;;
71366;SDS011;60030;52.274;8.040;2022-09-16T02:30:38;3.20;;;0.60;;
71366;SDS011;60030;52.274;8.040;2022-09-16T02:33:09;2.30;;;0.70;;
71366;SDS011;60030;52.274;8.040;2022-09-16T02:35:38;3.80;;;0.73;;
71366;SDS011;60030;52.274;8.040;2022-09-16T02:38:10;1.40;;;0.80;;
71366;SDS011;60030;52.274;8.040;2022-09-16T02:40:41;3.87;;;0.80;;
71366;SDS011;60030;52.274;8.040;2022-09-16T02:43:12;1.00;;;0.80;;
71366;SDS011;60030;52.274;8.040;2022-09-16T02:45:41;3.30;;;0.90;;
71366;SDS011;60030;52.274;8.040;2022-09-16T02:48:16;2.33;;;0.80;;
71366;SDS011;60030;52.274;8.040;2022-09-16T02:50:53;1.63;;;0.77;;
71366;SDS011;60030;52.274;8.040;2022-09-16T02:53:31;2.30;;;0.70;;
71366;SDS011;60030;52.274;8.040;2022-09-16T02:56:07;1.97;;;0.67;;
71366;SDS011;60030;52.274;8.040;2022-09-16T02:58:39;3.83;;;0.70;;
71366;SDS011;60030;52.274;8.040;2022-09-16T03:01:06;0.80;;;0.60;;
71366;SDS011;60030;52.274;8.040;2022-09-16T03:03:38;2.50;;;0.63;;
71366;SDS011;60030;52.274;8.040;2022-09-16T03:06:09;2.50;;;0.70;;
71366;SDS011;60030;52.274;8.040;2022-09-16T03:08:44;3.03;;;0.70;;
71366;SDS011;60030;52.274;8.040;2022-09-16T03:11:17;2.77;;;0.80;;
71366;SDS011;60030;52.274;8.040;2022-09-16T03:13:58;2.03;;;0.70;;
71366;SDS011;60030;52.274;8.040;2022-09-16T03:16:33;1.53;;;0.80;;
71366;SDS011;60030;52.274;8.040;2022-09-16T03:19:10;1.53;;;0.70;;
71366;SDS011;60030;52.274;8.040;2022-09-16T03:21:48;2.03;;;0.83;;
71366;SDS011;60030;52.274;8.040;2022-09-16T03:24:22;4.00;;;0.70;;
71366;SDS011;60030;52.274;8.040;2022-09-16T03:26:57;3.20;;;0.80;;
71366;SDS011;60030;52.274;8.040;2022-09-16T03:29:31;3.43;;;0.63;;
71366;SDS011;60030;52.274;8.040;2022-09-16T03:32:02;2.07;;;0.70;;
71366;SDS011;60030;52.274;8.040;2022-09-16T03:34:38;1.03;;;0.57;;
71366;SDS011;60030;52.274;8.040;2022-09-16T03:37:09;3.57;;;0.70;;
71366;SDS011;60030;52.274;8.040;2022-09-16T03:39:40;1.53;;;0.67;;
71366;SDS011;60030;52.274;8.040;2022-09-16T03:42:08;2.10;;;0.60;;
71366;SDS011;60030;52.274;8.040;2022-09-16T03:44:37;1.83;;;0.70;;
71366;SDS011;60030;52.274;8.040;2022-09-16T03:47:05;2.67;;;0.70;;
71366;SDS011;60030;52.274;8.040;2022-09-16T03:49:33;1.30;;;0.73;;
71366;SDS011;60030;52.274;8.040;2022-09-16T03:52:02;2.63;;;0.50;;
71366;SDS011;60030;52.274;8.040;2022-09-16T03:54:30;0.80;;;0.43;;
71366;SDS011;60030;52.274;8.040;2022-09-16T03:56:57;2.90;;;0.70;;
71366;SDS011;60030;52.274;8.040;2022-09-16T03:59:25;1.27;;;0.50;;
71366;SDS011;60030;52.274;8.040;2022-09-16T04:01:52;2.00;;;0.60;;
71366;SDS011;60030;52.274;8.040;2022-09-16T04:04:20;3.90;;;0.57;;
71366;SDS011;60030;52.274;8.040;2022-09-16T04:06:47;1.00;;;0.50;;
71366;SDS011;60030;52.274;8.040;2022-09-16T04:09:15;2.57;;;0.70;;
71366;SDS011;60030;52.274;8.040;2022-09-16T04:11:42;2.60;;;0.70;;
71366;SDS011;60030;52.274;8.040;2022-09-16T04:14:10;2.63;;;0.90;;
71366;SDS011;60030;52.274;8.040;2022-09-16T04:16:37;2.97;;;0.70;;
71366;SDS011;60030;52.274;8.040;2022-09-16T04:19:04;4.13;;;0.70;;
71366;SDS011;60030;52.274;8.040;2022-09-16T04:21:31;2.27;;;0.80;;
71366;SDS011;60030;52.274;8.040;2022-09-16T04:23:58;1.43;;;0.80;;
71366;SDS011;60030;52.274;8.040;2022-09-16T04:26:27;1.43;;;0.70;;
71366;SDS011;60030;52.274;8.040;2022-09-16T04:28:54;2.83;;;1.13;;
71366;SDS011;60030;52.274;8.040;2022-09-16T04:31:21;1.67;;;0.87;;
71366;SDS011;60030;52.274;8.040;2022-09-16T04:33:48;4.10;;;0.80;;
71366;SDS011;60030;52.274;8.040;2022-09-16T04:36:17;4.73;;;1.07;;
71366;SDS011;60030;52.274;8.040;2022-09-16T04:38:46;1.27;;;0.90;;
71366;SDS011;60030;52.274;8.040;2022-09-16T04:41:15;1.80;;;0.97;;
71366;SDS011;60030;52.274;8.040;2022-09-16T04:43:44;3.17;;;0.77;;
71366;SDS011;60030;52.274;8.040;2022-09-16T04:46:12;2.03;;;0.90;;
71366;SDS011;60030;52.274;8.040;2022-09-16T04:48:39;4.27;;;0.90;;
71366;SDS011;60030;52.274;8.040;2022-09-16T04:51:07;1.20;;;1.10;;
71366;SDS011;60030;52.274;8.040;2022-09-16T04:53:36;5.97;;;0.90;;
71366;SDS011;60030;52.274;8.040;2022-09-16T04:56:05;3.77;;;1.50;;
71366;SDS011;60030;52.274;8.040;2022-09-16T04:58:34;4.90;;;1.23;;
71366;SDS011;60030;52.274;8.040;2022-09-16T05:01:04;0.90;;;0.90;;
71366;SDS011;60030;52.274;8.040;2022-09-16T05:03:37;2.33;;;1.37;;
71366;SDS011;60030;52.274;8.040;2022-09-16T05:06:05;6.90;;;1.30;;
71366;SDS011;60030;52.274;8.040;2022-09-16T05:08:34;6.23;;;1.63;;
71366;SDS011;60030;52.274;8.040;2022-09-16T05:11:02;4.57;;;1.67;;
71366;SDS011;60030;52.274;8.040;2022-09-16T05:13:30;2.63;;;1.30;;
71366;SDS011;60030;52.274;8.040;2022-09-16T05:16:02;2.70;;;1.43;;
71366;SDS011;60030;52.274;8.040;2022-09-16T05:18:31;5.27;;;1.53;;
71366;SDS011;60030;52.274;8.040;2022-09-16T05:20:59;4.57;;;1.73;;
71366;SDS011;60030;52.274;8.040;2022-09-16T05:23:29;3.37;;;1.60;;
71366;SDS011;60030;52.274;8.040;2022-09-16T05:26:00;4.57;;;1.43;;
71366;SDS011;60030;52.274;8.040;2022-09-16T05:28:29;4.40;;;1.67;;
71366;SDS011;60030;52.274;8.040;2022-09-16T05:31:05;2.47;;;1.80;;
71366;SDS011;60030;52.274;8.040;2022-09-16T05:33:35;7.43;;;2.17;;
71366;SDS011;60030;52.274;8.040;2022-09-16T05:36:03;3.93;;;1.80;;
71366;SDS011;60030;52.274;8.040;2022-09-16T05:38:31;6.20;;;1.80;;
71366;SDS011;60030;52.274;8.040;2022-09-16T05:40:58;3.47;;;1.77;;
71366;SDS011;60030;52.274;8.040;2022-09-16T05:43:26;2.70;;;1.50;;
71366;SDS011;60030;52.274;8.040;2022-09-16T05:45:53;3.47;;;1.40;;
71366;SDS011;60030;52.274;8.040;2022-09-16T05:48:21;4.90;;;1.60;;
71366;SDS011;60030;52.274;8.040;2022-09-16T05:50:51;4.87;;;2.00;;
71366;SDS011;60030;52.274;8.040;2022-09-16T05:53:19;3.23;;;1.70;;
71366;SDS011;60030;52.274;8.040;2022-09-16T05:55:53;4.83;;;2.10;;
71366;SDS011;60030;52.274;8.040;2022-09-16T05:58:21;6.60;;;2.17;;
71366;SDS011;60030;52.274;8.040;2022-09-16T06:00:48;6.43;;;2.40;;
71366;SDS011;60030;52.274;8.040;2022-09-16T06:03:15;6.13;;;2.30;;
71366;SDS011;60030;52.274;8.040;2022-09-16T06:05:43;5.80;;;2.57;;
71366;SDS011;60030;52.274;8.040;2022-09-16T06:08:11;6.23;;;2.67;;
71366;SDS011;60030;52.274;8.040;2022-09-16T06:10:38;5.00;;;2.37;;
71366;SDS011;60030;52.274;8.040;2022-09-16T06:13:07;5.23;;;2.30;;
71366;SDS011;60030;52.274;8.040;2022-09-16T06:15:34;5.03;;;2.00;;
71366;SDS011;60030;52.274;8.040;2022-09-16T06:18:01;7.30;;;2.93;;
71366;SDS011;60030;52.274;8.040;2022-09-16T06:20:28;4.87;;;1.73;;
71366;SDS011;60030;52.274;8.040;2022-09-16T06:22:55;3.63;;;1.87;;
71366;SDS011;60030;52.274;8.040;2022-09-16T06:25:23;7.80;;;1.90;;
71366;SDS011;60030;52.274;8.040;2022-09-16T06:27:50;4.07;;;1.90;;
71366;SDS011;60030;52.274;8.040;2022-09-16T06:30:17;3.43;;;1.50;;
71366;SDS011;60030;52.274;8.040;2022-09-16T06:32:44;4.70;;;1.70;;
71366;SDS011;60030;52.274;8.040;2022-09-16T06:35:11;2.43;;;1.47;;
71366;SDS011;60030;52.274;8.040;2022-09-16T06:37:38;3.70;;;1.53;;
71366;SDS011;60030;52.274;8.040;2022-09-16T06:40:06;3.47;;;1.33;;
71366;SDS011;60030;52.274;8.040;2022-09-16T06:42:35;2.47;;;1.50;;
71366;SDS011;60030;52.274;8.040;2022-09-16T06:45:02;5.03;;;1.43;;
71366;SDS011;60030;52.274;8.040;2022-09-16T06:47:30;1.67;;;1.20;;
71366;SDS011;60030;52.274;8.040;2022-09-16T06:49:58;4.67;;;1.50;;
71366;SDS011;60030;52.274;8.040;2022-09-16T06:52:25;4.33;;;1.40;;
71366;SDS011;60030;52.274;8.040;2022-09-16T06:54:53;5.43;;;1.60;;
71366;SDS011;60030;52.274;8.040;2022-09-16T06:57:20;2.83;;;1.10;;
71366;SDS011;60030;52.274;8.040;2022-09-16T06:59:49;1.40;;;0.80;;
71366;SDS011;60030;52.274;8.040;2022-09-16T07:02:17;1.70;;;1.43;;
71366;SDS011;60030;52.274;8.040;2022-09-16T07:04:45;4.00;;;1.00;;
71366;SDS011;60030;52.274;8.040;2022-09-16T07:07:12;2.93;;;1.00;;
71366;SDS011;60030;52.274;8.040;2022-09-16T07:09:39;4.20;;;0.73;;
71366;SDS011;60030;52.274;8.040;2022-09-16T07:12:07;4.73;;;1.20;;
71366;SDS011;60030;52.274;8.040;2022-09-16T07:14:34;2.10;;;0.93;;
71366;SDS011;60030;52.274;8.040;2022-09-16T07:17:02;3.27;;;1.07;;
71366;SDS011;60030;52.274;8.040;2022-09-16T07:19:30;2.80;;;1.00;;
71366;SDS011;60030;52.274;8.040;2022-09-16T07:21:57;1.43;;;0.87;;
71366;SDS011;60030;52.274;8.040;2022-09-16T07:24:24;4.47;;;1.20;;
71366;SDS011;60030;52.274;8.040;2022-09-16T07:26:51;3.53;;;0.87;;
71366;SDS011;60030;52.274;8.040;2022-09-16T07:29:18;2.27;;;0.80;;
71366;SDS011;60030;52.274;8.040;2022-09-16T07:31:46;3.43;;;0.90;;
71366;SDS011;60030;52.274;8.040;2022-09-16T07:34:14;3.13;;;0.97;;
71366;SDS011;60030;52.274;8.040;2022-09-16T07:36:42;2.90;;;0.90;;
71366;SDS011;60030;52.274;8.040;2022-09-16T07:39:11;2.47;;;0.70;;
71366;SDS011;60030;52.274;8.040;2022-09-16T07:41:40;3.43;;;0.93;;
71366;SDS011;60030;52.274;8.040;2022-09-16T07:44:09;3.03;;;0.83;;
71366;SDS011;60030;52.274;8.040;2022-09-16T07:46:38;5.63;;;1.00;;
71366;SDS011;60030;52.274;8.040;2022-09-16T07:49:06;7.47;;;0.73;;
71366;SDS011;60030;52.274;8.040;2022-09-16T07:51:35;3.90;;;1.00;;
71366;SDS011;60030;52.274;8.040;2022-09-16T07:54:03;2.63;;;0.63;;
71366;SDS011;60030;52.274;8.040;2022-09-16T07:56:34;3.20;;;1.00;;
71366;SDS011;60030;52.274;8.040;2022-09-16T07:59:03;1.97;;;0.70;;
71366;SDS011;60030;52.274;8.040;2022-09-16T08:01:31;1.93;;;0.80;;
71366;SDS011;60030;52.274;8.040;2022-09-16T08:03:59;3.97;;;0.87;;
71366;SDS011;60030;52.274;8.040;2022-09-16T08:06:27;3.20;;;0.70;;
71366;SDS011;60030;52.274;8.040;2022-09-16T08:08:58;7.27;;;1.07;;
71366;SDS011;60030;52.274;8.040;2022-09-16T08:11:27;2.70;;;0.80;;
71366;SDS011;60030;52.274;8.040;2022-09-16T08:13:56;7.63;;;1.10;;
71366;SDS011;60030;52.274;8.040;2022-09-16T08:16:24;2.83;;;0.80;;
71366;SDS011;60030;52.274;8.040;2022-09-16T08:18:53;3.93;;;0.80;;
71366;SDS011;60030;52.274;8.040;2022-09-16T08:21:21;4.23;;;0.80;;
71366;SDS011;60030;52.274;8.040;2022-09-16T08:23:51;2.83;;;0.70;;
71366;SDS011;60030;52.274;8.040;2022-09-16T08:26:19;5.53;;;0.80;;
71366;SDS011;60030;52.274;8.040;2022-09-16T08:28:47;4.00;;;0.90;;
71366;SDS011;60030;52.274;8.040;2022-09-16T08:31:15;5.03;;;0.90;;
71366;SDS011;60030;52.274;8.040;2022-09-16T08:33:42;6.83;;;0.80;;
71366;SDS011;60030;52.274;8.040;2022-09-16T08:36:11;2.80;;;0.70;;
71366;SDS011;60030;52.274;8.040;2022-09-16T08:38:40;6.43;;;0.93;;
71366;SDS011;60030;52.274;8.040;2022-09-16T08:41:21;6.57;;;0.83;;
71366;SDS011;60030;52.274;8.040;2022-09-16T08:43:55;3.13;;;1.20;;
71366;SDS011;60030;52.274;8.040;2022-09-16T08:46:30;1.97;;;0.57;;
71366;SDS011;60030;52.274;8.040;2022-09-16T08:49:03;2.53;;;0.63;;
71366;SDS011;60030;52.274;8.040;2022-09-16T08:51:41;5.67;;;0.77;;
71366;SDS011;60030;52.274;8.040;2022-09-16T08:54:10;4.57;;;0.87;;
71366;SDS011;60030;52.274;8.040;2022-09-16T08:56:44;3.57;;;0.83;;
71366;SDS011;60030;52.274;8.040;2022-09-16T08:59:14;5.93;;;0.83;;
71366;SDS011;60030;52.274;8.040;2022-09-16T09:01:46;3.63;;;0.73;;
71366;SDS011;60030;52.274;8.040;2022-09-16T09:04:17;5.03;;;1.00;;
71366;SDS011;60030;52.274;8.040;2022-09-16T09:06:50;4.50;;;0.87;;
71366;SDS011;60030;52.274;8.040;2022-09-16T09:09:35;4.43;;;0.87;;
71366;SDS011;60030;52.274;8.040;2022-09-16T09:12:17;8.27;;;0.90;;
71366;SDS011;60030;52.274;8.040;2022-09-16T09:14:54;5.70;;;0.70;;
71366;SDS011;60030;52.274;8.040;2022-09-16T09:17:33;2.53;;;0.80;;
71366;SDS011;60030;52.274;8.040;2022-09-16T09:20:15;5.07;;;1.10;;
71366;SDS011;60030;52.274;8.040;2022-09-16T09:22:59;4.23;;;1.00;;
71366;SDS011;60030;52.274;8.040;2022-09-16T09:25:39;2.70;;;0.63;;
71366;SDS011;60030;52.274;8.040;2022-09-16T09:28:17;9.40;;;1.03;;
71366;SDS011;60030;52.274;8.040;2022-09-16T09:30:59;6.70;;;0.83;;
71366;SDS011;60030;52.274;8.040;2022-09-16T09:33:34;8.17;;;1.07;;
71366;SDS011;60030;52.274;8.040;2022-09-16T09:39:09;5.27;;;1.00;;
71366;SDS011;60030;52.274;8.040;2022-09-16T09:41:44;2.77;;;0.70;;
71366;SDS011;60030;52.274;8.040;2022-09-16T09:44:23;8.80;;;0.83;;
71366;SDS011;60030;52.274;8.040;2022-09-16T09:46:59;10.60;;;1.20;;
71366;SDS011;60030;52.274;8.040;2022-09-16T09:49:32;4.60;;;1.00;;
71366;SDS011;60030;52.274;8.040;2022-09-16T09:52:04;3.97;;;0.73;;
71366;SDS011;60030;52.274;8.040;2022-09-16T09:54:37;4.07;;;1.00;;
71366;SDS011;60030;52.274;8.040;2022-09-16T09:57:07;7.43;;;1.03;;
71366;SDS011;60030;52.274;8.040;2022-09-16T09:59:46;6.90;;;1.33;;
71366;SDS011;60030;52.274;8.040;2022-09-16T10:02:17;9.07;;;1.20;;
71366;SDS011;60030;52.274;8.040;2022-09-16T10:04:45;4.43;;;0.80;;
71366;SDS011;60030;52.274;8.040;2022-09-16T10:07:13;10.57;;;1.00;;
71366;SDS011;60030;52.274;8.040;2022-09-16T10:09:46;1.23;;;0.80;;
71366;SDS011;60030;52.274;8.040;2022-09-16T10:12:25;3.93;;;0.90;;
71366;SDS011;60030;52.274;8.040;2022-09-16T10:14:54;2.80;;;0.80;;
71366;SDS011;60030;52.274;8.040;2022-09-16T10:17:21;3.53;;;0.70;;
71366;SDS011;60030;52.274;8.040;2022-09-16T10:19:51;4.23;;;0.90;;
71366;SDS011;60030;52.274;8.040;2022-09-16T10:22:21;3.03;;;0.73;;
71366;SDS011;60030;52.274;8.040;2022-09-16T10:24:54;4.87;;;0.90;;
71366;SDS011;60030;52.274;8.040;2022-09-16T10:27:23;3.77;;;1.30;;
71366;SDS011;60030;52.274;8.040;2022-09-16T10:30:10;5.43;;;0.60;;
71366;SDS011;60030;52.274;8.040;2022-09-16T10:32:44;3.70;;;1.03;;
71366;SDS011;60030;52.274;8.040;2022-09-16T10:35:20;4.70;;;0.93;;
71366;SDS011;60030;52.274;8.040;2022-09-16T10:37:50;3.87;;;0.93;;
71366;SDS011;60030;52.274;8.040;2022-09-16T10:40:19;5.03;;;0.97;;
71366;SDS011;60030;52.274;8.040;2022-09-16T10:42:48;5.40;;;1.10;;
71366;SDS011;60030;52.274;8.040;2022-09-16T10:45:21;4.07;;;1.10;;
71366;SDS011;60030;52.274;8.040;2022-09-16T10:47:52;3.47;;;1.43;;
71366;SDS011;60030;52.274;8.040;2022-09-16T10:50:21;6.40;;;1.07;;
71366;SDS011;60030;52.274;8.040;2022-09-16T10:52:49;2.30;;;0.70;;
71366;SDS011;60030;52.274;8.040;2022-09-16T10:55:21;3.73;;;0.80;;
71366;SDS011;60030;52.274;8.040;2022-09-16T10:57:50;6.03;;;0.80;;
71366;SDS011;60030;52.274;8.040;2022-09-16T11:00:18;3.17;;;0.60;;
71366;SDS011;60030;52.274;8.040;2022-09-16T11:03:06;2.27;;;0.80;;
71366;SDS011;60030;52.274;8.040;2022-09-16T11:06:05;3.67;;;0.70;;
71366;SDS011;60030;52.274;8.040;2022-09-16T11:08:48;2.73;;;0.60;;
71366;SDS011;60030;52.274;8.040;2022-09-16T11:11:29;2.87;;;1.30;;
71366;SDS011;60030;52.274;8.040;2022-09-16T11:14:09;4.30;;;0.97;;
71366;SDS011;60030;52.274;8.040;2022-09-16T11:16:46;6.37;;;1.20;;
71366;SDS011;60030;52.274;8.040;2022-09-16T11:19:31;2.03;;;0.80;;
71366;SDS011;60030;52.274;8.040;2022-09-16T11:22:08;4.93;;;0.90;;
71366;SDS011;60030;52.274;8.040;2022-09-16T11:24:46;1.97;;;0.63;;
71366;SDS011;60030;52.274;8.040;2022-09-16T11:27:28;5.17;;;1.23;;
71366;SDS011;60030;52.274;8.040;2022-09-16T11:30:07;3.17;;;0.80;;
71366;SDS011;60030;52.274;8.040;2022-09-16T11:32:47;3.50;;;0.77;;
71366;SDS011;60030;52.274;8.040;2022-09-16T11:35:39;3.87;;;1.00;;
71366;SDS011;60030;52.274;8.040;2022-09-16T11:38:34;3.93;;;0.70;;
71366;SDS011;60030;52.274;8.040;2022-09-16T11:41:07;3.70;;;0.80;;
71366;SDS011;60030;52.274;8.040;2022-09-16T11:43:48;1.40;;;0.67;;
71366;SDS011;60030;52.274;8.040;2022-09-16T11:46:37;4.47;;;0.80;;
71366;SDS011;60030;52.274;8.040;2022-09-16T11:49:21;2.93;;;0.67;;
71366;SDS011;60030;52.274;8.040;2022-09-16T11:52:04;5.07;;;1.17;;
71366;SDS011;60030;52.274;8.040;2022-09-16T11:54:45;5.13;;;1.10;;
71366;SDS011;60030;52.274;8.040;2022-09-16T11:57:25;3.07;;;0.67;;
71366;SDS011;60030;52.274;8.040;2022-09-16T11:59:55;6.63;;;0.83;;
71366;SDS011;60030;52.274;8.040;2022-09-16T12:02:39;4.43;;;0.80;;
71366;SDS011;60030;52.274;8.040;2022-09-16T12:05:14;6.03;;;1.07;;
71366;SDS011;60030;52.274;8.040;2022-09-16T12:07:47;5.23;;;1.23;;
71366;SDS011;60030;52.274;8.040;2022-09-16T12:10:18;1.27;;;0.30;;
71366;SDS011;60030;52.274;8.040;2022-09-16T12:12:49;1.67;;;0.50;;
71366;SDS011;60030;52.274;8.040;2022-09-16T12:15:20;3.33;;;0.60;;
71366;SDS011;60030;52.274;8.040;2022-09-16T12:17:52;4.57;;;0.80;;
71366;SDS011;60030;52.274;8.040;2022-09-16T12:20:23;4.47;;;0.77;;
71366;SDS011;60030;52.274;8.040;2022-09-16T12:22:53;5.90;;;0.87;;
71366;SDS011;60030;52.274;8.040;2022-09-16T12:25:27;4.13;;;0.90;;
71366;SDS011;60030;52.274;8.040;2022-09-16T12:28:00;3.40;;;0.80;;
71366;SDS011;60030;52.274;8.040;2022-09-16T12:30:33;2.53;;;0.90;;
71366;SDS011;60030;52.274;8.040;2022-09-16T12:33:04;5.20;;;1.10;;
71366;SDS011;60030;52.274;8.040;2022-09-16T12:35:36;4.47;;;0.90;;
71366;SDS011;60030;52.274;8.040;2022-09-16T12:38:08;3.80;;;0.77;;
71366;SDS011;60030;52.274;8.040;2022-09-16T12:40:46;6.90;;;1.00;;
71366;SDS011;60030;52.274;8.040;2022-09-16T12:43:39;5.37;;;1.00;;
71366;SDS011;60030;52.274;8.040;2022-09-16T12:46:33;4.00;;;0.70;;
71366;SDS011;60030;52.274;8.040;2022-09-16T12:49:29;1.47;;;0.80;;
71366;SDS011;60030;52.274;8.040;2022-09-16T12:55:29;3.53;;;0.97;;
71366;SDS011;60030;52.274;8.040;2022-09-16T12:58:13;3.63;;;0.90;;
71366;SDS011;60030;52.274;8.040;2022-09-16T13:01:02;4.70;;;0.83;;
71366;SDS011;60030;52.274;8.040;2022-09-16T13:03:52;3.57;;;1.17;;
71366;SDS011;60030;52.274;8.040;2022-09-16T13:06:23;5.53;;;0.80;;
71366;SDS011;60030;52.274;8.040;2022-09-16T13:08:53;6.90;;;1.13;;
71366;SDS011;60030;52.274;8.040;2022-09-16T13:11:23;4.23;;;0.83;;
71366;SDS011;60030;52.274;8.040;2022-09-16T13:13:53;2.50;;;0.90;;
71366;SDS011;60030;52.274;8.040;2022-09-16T13:16:26;6.10;;;1.20;;
71366;SDS011;60030;52.274;8.040;2022-09-16T13:19:14;7.70;;;1.47;;
71366;SDS011;60030;52.274;8.040;2022-09-16T13:21:59;5.20;;;0.90;;
71366;SDS011;60030;52.274;8.040;2022-09-16T13:24:40;3.47;;;0.60;;
71366;SDS011;60030;52.274;8.040;2022-09-16T13:27:25;2.27;;;0.80;;
71366;SDS011;60030;52.274;8.040;2022-09-16T13:30:04;4.70;;;0.90;;
71366;SDS011;60030;52.274;8.040;2022-09-16T13:32:42;6.33;;;0.80;;
71366;SDS011;60030;52.274;8.040;2022-09-16T13:35:21;2.47;;;0.80;;
71366;SDS011;60030;52.274;8.040;2022-09-16T13:37:50;4.88;;;1.10;;
71366;SDS011;60030;52.274;8.040;2022-09-16T13:40:22;4.43;;;1.13;;
71366;SDS011;60030;52.274;8.040;2022-09-16T13:42:50;4.87;;;0.77;;
71366;SDS011;60030;52.274;8.040;2022-09-16T13:45:30;3.85;;;1.08;;
71366;SDS011;60030;52.274;8.040;2022-09-16T13:48:00;3.50;;;1.10;;
71366;SDS011;60030;52.274;8.040;2022-09-16T13:50:31;4.38;;;0.82;;
71366;SDS011;60030;52.274;8.040;2022-09-16T13:53:07;4.13;;;0.85;;
71366;SDS011;60030;52.274;8.040;2022-09-16T13:55:36;5.45;;;1.30;;
71366;SDS011;60030;52.274;8.040;2022-09-16T13:58:09;10.57;;;1.60;;
71366;SDS011;60030;52.274;8.040;2022-09-16T14:00:44;4.70;;;0.77;;
71366;SDS011;60030;52.274;8.040;2022-09-16T14:03:42;1.77;;;0.65;;
71366;SDS011;60030;52.274;8.040;2022-09-16T14:06:25;2.80;;;0.50;;
71366;SDS011;60030;52.274;8.040;2022-09-16T14:09:27;2.57;;;0.57;;
71366;SDS011;60030;52.274;8.040;2022-09-16T14:12:03;4.35;;;1.00;;
71366;SDS011;60030;52.274;8.040;2022-09-16T14:14:37;1.53;;;0.63;;
71366;SDS011;60030;52.274;8.040;2022-09-16T14:17:12;4.27;;;0.80;;
71366;SDS011;60030;52.274;8.040;2022-09-16T14:19:42;3.00;;;0.70;;
71366;SDS011;60030;52.274;8.040;2022-09-16T14:22:13;3.70;;;1.13;;
71366;SDS011;60030;52.274;8.040;2022-09-16T14:24:42;1.20;;;0.80;;
71366;SDS011;60030;52.274;8.040;2022-09-16T14:27:19;1.30;;;0.50;;
71366;SDS011;60030;52.274;8.040;2022-09-16T14:29:54;1.83;;;0.57;;
71366;SDS011;60030;52.274;8.040;2022-09-16T14:32:23;3.30;;;1.10;;
71366;SDS011;60030;52.274;8.040;2022-09-16T14:34:52;2.10;;;0.70;;
71366;SDS011;60030;52.274;8.040;2022-09-16T14:37:22;3.80;;;0.97;;
71366;SDS011;60030;52.274;8.040;2022-09-16T14:39:51;8.37;;;1.20;;
71366;SDS011;60030;52.274;8.040;2022-09-16T14:42:30;2.73;;;0.80;;
71366;SDS011;60030;52.274;8.040;2022-09-16T14:44:58;3.13;;;0.70;;
71366;SDS011;60030;52.274;8.040;2022-09-16T14:47:26;3.30;;;0.80;;
71366;SDS011;60030;52.274;8.040;2022-09-16T14:49:56;2.03;;;0.40;;
71366;SDS011;60030;52.274;8.040;2022-09-16T14:52:30;6.93;;;1.30;;
71366;SDS011;60030;52.274;8.040;2022-09-16T14:54:58;2.90;;;0.60;;
71366;SDS011;60030;52.274;8.040;2022-09-16T14:57:27;2.87;;;0.70;;
71366;SDS011;60030;52.274;8.040;2022-09-16T14:59:59;5.10;;;1.00;;
71366;SDS011;60030;52.274;8.040;2022-09-16T15:02:32;2.07;;;0.57;;
71366;SDS011;60030;52.274;8.040;2022-09-16T15:07:47;2.60;;;0.60;;
71366;SDS011;60030;52.274;8.040;2022-09-16T15:10:17;2.93;;;0.70;;
71366;SDS011;60030;52.274;8.040;2022-09-16T15:12:52;3.03;;;0.70;;
71366;SDS011;60030;52.274;8.040;2022-09-16T15:15:23;6.20;;;0.93;;
71366;SDS011;60030;52.274;8.040;2022-09-16T15:17:52;4.63;;;0.80;;
71366;SDS011;60030;52.274;8.040;2022-09-16T15:20:27;3.37;;;0.80;;
71366;SDS011;60030;52.274;8.040;2022-09-16T15:22:56;1.50;;;0.57;;
71366;SDS011;60030;52.274;8.040;2022-09-16T15:25:25;4.50;;;1.00;;
71366;SDS011;60030;52.274;8.040;2022-09-16T15:28:03;3.17;;;0.83;;